Alfonso Bonilla Aragon International Airport
SKCL : rendu visible

Aérodrome :











RETROUVEZ-NOUS SUR...

 
LOGIN :

S'inscrire | Disclaimer

   EN    FR    IT 

 









Légende :    VFR   VFR Marginal   IFR   IFR Intensif   IFR Très Intensif
Visi : 
Plafond : 
>= 8 km
>= 3000ft
5 à 8 km
1000 à 3000 ft
1500m à 5 km
500 à 1000 ft
800 à 1500m
200 à 500 ft
< 800m
< 200 ft
Symboles :   Orages  Brouillard  Fortes neiges  Fortes précipitations  Vent > 20 kt






- Altitude de l'aérodrome : 3162 ft
- Code IATA : CLO


SKCL - Alfonso Bonilla Aragon International

DERNIER METAR :
  • 281600Z 18003KT 9999 FEW017 SCT100 26/20 A3011 NOSIG

METARs EXPIRÉS :
  • 281500Z 23003KT 9999 FEW010 BKN100 23/20 A3013 NOSIG
  • 281400Z 24003KT 9999 FEW010 BKN090 20/18 A3012 NOSIG REDZ

TAF TAF SKCL
Valide du 28 à 12h jusqu'au 29 à 12h UTC


281030Z 2812/2912 VRB03KT 9999 SCT010 BKN090
BECMG 2820/2822 31010KT
PROB40
TEMPO 2822/2900 4000 TSRA SCT015CB
BECMG 2902/2905 VRB03KT TX30/2819Z TN19/2911Z



MET'MAP, la Météo Aéronautique d'un coup d'oeil ! - Copyright ORBIFLY Décembre 2007 - Disclaimer

ORBIFLY MET'MAP TEAM :

Programmation & Développement : Alexandra Zaïnal
Sur une idée originale de : Baudouin d'Aumeries
Assistance à la programmation : Marc-Olivier Méhu
Soutien technique & logistique : Manuel Goepfert

Contact : metmap@orbifly.com




SOURCES & CREDITS :

   NOAA       Earth
Advisory